Time;durP1;ratioP1;P1;durP2;ratioP2;P2;SDS_P1;SDS_P2;PMS_P1;PMS_P2;Temp;Humidity;BMP_temperature;BMP_pressure;BME280_temperature;BME280_humidity;BME280_pressure;Samples;Min_cycle;Max_cycle;Signal;HPM_P1;HPM_P2
2022/05/05 00:01:43;;;;;;;14.80;6.65;;;;;;;10.29;73.73;102091.63;5038330;28;20052;-63
2022/05/05 00:04:09;;;;;;;13.32;7.72;;;;;;;10.29;74.46;102094.25;5047795;28;20024;-63
2022/05/05 00:06:35;;;;;;;14.20;7.93;;;;;;;10.29;74.65;102094.25;5047857;28;20430;-64
2022/05/05 00:09:01;;;;;;;14.38;6.93;;;;;;;10.28;74.88;102090.72;5048060;28;20028;-63
2022/05/05 00:14:23;;;;;;;15.43;7.70;;;;;;;10.35;74.40;102095.03;5046292;28;20533;-63
2022/05/05 00:16:53;;;;;;;13.02;7.35;;;;;;;10.34;74.81;102093.28;5029119;28;20032;-64
2022/05/05 00:19:19;;;;;;;13.63;7.85;;;;;;;10.37;74.78;102095.00;5027775;28;20021;-62
2022/05/05 00:21:45;;;;;;;13.32;7.72;;;;;;;10.36;75.16;102096.75;5027584;28;20506;-63
2022/05/05 00:24:11;;;;;;;14.00;7.78;;;;;;;10.33;74.86;102099.44;5028021;28;20034;-63
2022/05/05 00:26:36;;;;;;;14.15;7.72;;;;;;;10.32;74.70;102096.81;5027755;28;20025;-63
2022/05/05 00:29:02;;;;;;;17.25;8.10;;;;;;;10.24;74.79;102089.88;5042389;28;20113;-63
2022/05/05 00:31:28;;;;;;;16.35;7.97;;;;;;;10.26;74.50;102091.66;5038865;28;20040;-63
2022/05/05 00:33:53;;;;;;;14.15;8.13;;;;;;;10.23;74.91;102095.16;5042240;28;20091;-63
2022/05/05 00:36:18;;;;;;;20.73;8.60;;;;;;;10.17;75.17;102095.28;5042094;28;20258;-63
2022/05/05 00:38:44;;;;;;;14.07;7.78;;;;;;;10.13;75.13;102096.16;5038568;28;20458;-63
2022/05/05 00:41:09;;;;;;;17.60;8.40;;;;;;;10.13;75.13;102099.69;5041611;28;20407;-63
2022/05/05 00:43:35;;;;;;;14.90;8.10;;;;;;;10.08;75.35;102094.47;5043112;28;20522;-63
2022/05/05 00:46:01;;;;;;;16.77;8.32;;;;;;;10.05;75.82;102094.50;5045763;28;20407;-62
2022/05/05 00:48:27;;;;;;;18.08;8.63;;;;;;;10.01;75.69;102098.06;5045839;28;20659;-64
2022/05/05 00:50:52;;;;;;;17.45;8.55;;;;;;;9.98;76.12;102098.09;5047145;28;20021;-63
2022/05/05 00:53:17;;;;;;;15.45;8.70;;;;;;;9.94;76.18;102093.75;5047920;28;20032;-63
2022/05/05 00:55:43;;;;;;;14.65;8.00;;;;;;;9.90;76.58;102106.06;5046630;28;20068;-64
2022/05/05 00:58:09;;;;;;;20.45;9.40;;;;;;;9.88;76.95;102099.97;5046858;28;20032;-61
2022/05/05 01:00:35;;;;;;;16.38;8.30;;;;;;;9.84;76.92;102107.03;5042603;28;20024;-64
2022/05/05 01:03:01;;;;;;;15.02;8.43;;;;;;;9.81;77.02;102101.78;5047293;28;20025;-63
2022/05/05 01:05:29;;;;;;;16.13;8.82;;;;;;;9.78;77.08;102098.31;5043287;28;20025;-62
2022/05/05 01:07:56;;;;;;;15.10;8.23;;;;;;;9.80;77.21;102104.44;5045363;28;20051;-64
2022/05/05 01:10:22;;;;;;;18.75;8.93;;;;;;;9.78;77.50;102101.81;5045984;28;20021;-61
2022/05/05 01:12:47;;;;;;;20.05;8.98;;;;;;;9.80;77.58;102102.69;5031859;28;20040;-63
2022/05/05 01:15:13;;;;;;;14.13;8.70;;;;;;;9.81;77.94;102099.16;5028408;28;20030;-63
2022/05/05 01:17:38;;;;;;;15.38;8.55;;;;;;;9.84;78.19;102090.34;5030504;28;20104;-63
2022/05/05 01:20:18;;;;;;;15.40;9.18;;;;;;;9.83;78.28;102099.13;5031448;28;20108;-63
2022/05/05 01:22:44;;;;;;;18.73;8.85;;;;;;;9.87;78.35;102100.84;5031049;28;20464;-64
2022/05/05 01:28:12;;;;;;;18.90;9.43;;;;;;;9.92;78.81;102088.50;5039887;28;20067;-63
2022/05/05 01:30:39;;;;;;;16.35;8.25;;;;;;;9.96;78.60;102084.06;5044741;28;20028;-62
2022/05/05 01:33:16;;;;;;;18.10;10.40;;;;;;;10.04;78.51;102090.13;5041334;28;20083;-62
2022/05/05 01:35:45;;;;;;;20.52;9.68;;;;;;;10.04;78.28;102089.25;5045179;28;20071;-63
2022/05/05 01:38:21;;;;;;;16.05;8.63;;;;;;;10.04;78.19;102082.22;5045247;28;20021;-63
2022/05/05 01:40:47;;;;;;;20.10;9.82;;;;;;;10.06;78.17;102084.84;5044594;28;20029;-62
2022/05/05 01:43:14;;;;;;;17.33;10.23;;;;;;;10.06;78.43;102079.59;5042275;28;20013;-63
2022/05/05 01:45:39;;;;;;;17.65;10.63;;;;;;;10.07;78.45;102087.47;5042094;28;20028;-63
2022/05/05 01:48:05;;;;;;;18.95;9.18;;;;;;;10.09;78.09;102084.81;5044905;28;20029;-64
2022/05/05 01:50:31;;;;;;;16.90;9.65;;;;;;;10.10;78.20;102087.44;5042308;28;20041;-63
2022/05/05 01:52:57;;;;;;;15.70;9.30;;;;;;;10.10;78.29;102079.53;5042393;28;20032;-63
2022/05/05 01:55:23;;;;;;;18.80;9.48;;;;;;;10.12;78.24;102087.41;5023727;28;20104;-62
2022/05/05 01:57:49;;;;;;;15.73;8.75;;;;;;;10.11;78.42;102089.16;5044195;28;20120;-62
2022/05/05 02:00:15;;;;;;;16.80;9.25;;;;;;;10.15;78.32;102094.41;5038743;28;20080;-62
2022/05/05 02:02:44;;;;;;;14.85;9.35;;;;;;;10.15;78.22;102083.88;5048792;28;20017;-62
2022/05/05 02:05:10;;;;;;;16.50;9.00;;;;;;;10.18;78.01;102091.75;5047426;28;20036;-63
2022/05/05 02:07:35;;;;;;;16.95;8.88;;;;;;;10.22;77.97;102091.69;5043518;28;20119;-61
2022/05/05 02:10:03;;;;;;;18.45;9.20;;;;;;;10.21;77.97;102091.69;5043693;28;20029;-63
2022/05/05 02:12:29;;;;;;;12.80;8.82;;;;;;;10.22;78.03;102089.06;5028332;28;20052;-64
2022/05/05 02:14:54;;;;;;;15.73;9.80;;;;;;;10.22;78.01;102093.44;5028103;28;20025;-63
2022/05/05 02:17:20;;;;;;;17.60;8.50;;;;;;;10.22;78.33;102096.06;5030014;28;20026;-62
2022/05/05 02:19:46;;;;;;;18.17;9.68;;;;;;;10.20;78.11;102095.19;5030027;28;20021;-61
2022/05/05 02:22:12;;;;;;;14.50;8.60;;;;;;;10.18;78.14;102094.38;5031501;28;20392;-63
2022/05/05 02:24:38;;;;;;;15.90;9.30;;;;;;;10.11;78.32;102089.16;5044024;28;20036;-63
2022/05/05 02:27:04;;;;;;;17.83;8.77;;;;;;;10.11;78.43;102096.19;5041618;28;20032;-62
2022/05/05 02:29:30;;;;;;;13.68;9.23;;;;;;;10.08;78.30;102104.13;5039327;28;20033;-63
2022/05/05 02:31:55;;;;;;;14.43;9.82;;;;;;;10.02;78.28;102099.81;5039942;28;20554;-64
2022/05/05 02:34:20;;;;;;;21.48;9.70;;;;;;;10.02;78.15;102098.94;5042579;28;20033;-64
2022/05/05 02:39:30;;;;;;;13.13;9.02;;;;;;;9.94;78.64;102104.28;5043780;28;20094;-63
2022/05/05 02:41:55;;;;;;;13.82;8.10;;;;;;;9.89;78.94;102103.47;5042056;28;21225;-63
2022/05/05 02:44:20;;;;;;;18.48;9.43;;;;;;;9.83;78.94;102104.41;5042185;28;20400;-63
2022/05/05 02:46:46;;;;;;;16.58;9.70;;;;;;;9.77;78.93;102109.72;5042022;28;20380;-63
2022/05/05 02:49:13;;;;;;;14.50;8.07;;;;;;;9.74;78.80;102105.38;5044548;28;20053;-63
2022/05/05 02:51:38;;;;;;;15.00;8.27;;;;;;;9.72;78.81;102115.03;5044020;28;20095;-64
2022/05/05 02:56:48;;;;;;;15.60;9.45;;;;;;;9.68;78.89;102116.84;5040804;28;20467;-64
2022/05/05 02:59:13;;;;;;;19.25;10.00;;;;;;;9.70;79.20;102106.28;5043906;28;20060;-63
2022/05/05 03:01:38;;;;;;;13.68;8.75;;;;;;;9.72;78.91;102107.13;5047924;28;20060;-63
2022/05/05 03:04:04;;;;;;;18.85;9.68;;;;;;;9.74;78.88;102110.63;5047595;28;20425;-63
2022/05/05 03:06:29;;;;;;;17.20;8.93;;;;;;;9.73;78.97;102104.47;5042216;28;20031;-62
2022/05/05 03:08:54;;;;;;;15.68;9.40;;;;;;;9.74;79.09;102102.75;5041224;28;22116;-63
2022/05/05 03:11:20;;;;;;;19.48;8.88;;;;;;;9.73;79.15;102104.47;5045322;28;20033;-64
2022/05/05 03:13:45;;;;;;;19.83;10.27;;;;;;;9.73;79.50;102099.22;5046837;28;20028;-64
2022/05/05 03:16:11;;;;;;;17.85;9.95;;;;;;;9.74;79.35;102102.75;5048360;28;20114;-63
2022/05/05 03:18:40;;;;;;;14.48;9.18;;;;;;;9.72;79.46;102113.28;5048834;28;20340;-65
2022/05/05 03:21:06;;;;;;;16.88;10.18;;;;;;;9.70;79.51;102108.94;5049160;28;20147;-63
2022/05/05 03:23:31;;;;;;;15.75;9.38;;;;;;;9.70;79.17;102096.63;5045449;28;20486;-63
2022/05/05 03:25:56;;;;;;;17.10;9.88;;;;;;;9.70;79.56;102107.16;5043806;28;20033;-64
2022/05/05 03:28:21;;;;;;;15.80;8.52;;;;;;;9.70;79.63;102106.28;5040786;28;20079;-63
2022/05/05 03:30:47;;;;;;;23.17;10.20;;;;;;;9.68;79.42;102108.06;5047602;28;20404;-63
2022/05/05 03:33:12;;;;;;;16.33;8.88;;;;;;;9.65;79.54;102108.09;5047136;28;20037;-63
2022/05/05 03:35:38;;;;;;;14.98;8.98;;;;;;;9.66;79.52;102115.13;5048111;28;20017;-63
2022/05/05 03:38:03;;;;;;;14.65;9.18;;;;;;;9.61;79.89;102110.75;5047679;28;20082;-64
2022/05/05 03:40:29;;;;;;;17.98;11.02;;;;;;;9.61;79.97;102107.25;5047766;28;20476;-64
2022/05/05 03:42:54;;;;;;;22.67;9.80;;;;;;;9.59;79.96;102106.38;5048061;28;20153;-63
2022/05/05 03:45:20;;;;;;;20.65;10.57;;;;;;;9.60;80.28;102105.50;5046834;28;20134;-62
2022/05/05 03:47:45;;;;;;;25.17;11.55;;;;;;;9.58;80.53;102110.75;5040771;28;20029;-63
2022/05/05 03:50:11;;;;;;;18.00;9.98;;;;;;;9.55;80.63;102108.19;5042455;28;20052;-64
2022/05/05 03:52:37;;;;;;;20.73;10.85;;;;;;;9.57;80.63;102108.19;5042413;28;20017;-63
2022/05/05 03:55:02;;;;;;;17.95;10.60;;;;;;;9.56;80.57;102112.56;5035661;28;20352;-63
2022/05/05 03:57:27;;;;;;;18.35;10.23;;;;;;;9.57;80.54;102114.28;5026479;28;20021;-64
2022/05/05 03:59:53;;;;;;;20.05;11.55;;;;;;;9.59;80.89;102116.91;5028562;28;20026;-62
2022/05/05 04:02:18;;;;;;;15.63;10.45;;;;;;;9.59;80.91;102117.78;5041147;28;20051;-63
2022/05/05 04:04:43;;;;;;;18.23;10.55;;;;;;;9.64;80.90;102119.50;5045281;28;20025;-64
2022/05/05 04:07:09;;;;;;;18.35;10.98;;;;;;;9.68;81.04;102115.94;5048295;28;20029;-63
2022/05/05 04:09:34;;;;;;;19.45;10.43;;;;;;;9.75;81.01;102117.63;5047406;28;20033;-63
2022/05/05 04:11:59;;;;;;;21.30;10.43;;;;;;;9.82;80.55;102119.31;5047402;28;20025;-64
2022/05/05 04:14:25;;;;;;;23.90;11.77;;;;;;;9.90;80.52;102113.13;5046960;28;20029;-63
2022/05/05 04:16:51;;;;;;;21.48;10.63;;;;;;;9.93;80.32;102124.47;5048298;28;20025;-63
2022/05/05 04:19:16;;;;;;;20.92;11.43;;;;;;;9.98;80.29;102124.44;5047523;28;20031;-63
2022/05/05 04:21:41;;;;;;;18.48;10.88;;;;;;;10.08;79.97;102120.81;5043299;28;20044;-63
2022/05/05 04:24:07;;;;;;;18.17;8.88;;;;;;;10.17;79.68;102124.25;5037367;28;20032;-63
2022/05/05 04:26:32;;;;;;;17.42;9.82;;;;;;;10.27;79.54;102130.25;5047239;28;20530;-63
2022/05/05 04:28:58;;;;;;;20.13;11.30;;;;;;;10.34;79.36;102117.00;5046967;28;20056;-62
2022/05/05 04:31:27;;;;;;;17.30;10.15;;;;;;;10.46;78.95;102123.03;5045189;28;20017;-63
2022/05/05 04:33:53;;;;;;;16.45;9.88;;;;;;;10.55;78.84;102129.94;5047535;28;20064;-63
2022/05/05 04:36:19;;;;;;;18.42;10.45;;;;;;;10.64;78.49;102126.31;5045557;28;20219;-63
2022/05/05 04:38:44;;;;;;;21.95;11.35;;;;;;;10.71;78.40;102127.97;5045952;28;20120;-63
2022/05/05 04:41:09;;;;;;;21.17;12.07;;;;;;;10.78;78.06;102129.66;5047289;28;20024;-61
2022/05/05 04:43:35;;;;;;;14.52;9.50;;;;;;;10.91;77.26;102124.19;5044590;28;20052;-63
2022/05/05 04:46:01;;;;;;;16.42;9.60;;;;;;;10.98;76.77;102126.72;5046166;28;20029;-63
2022/05/05 04:48:26;;;;;;;19.70;10.77;;;;;;;11.08;76.36;102123.94;5029028;28;20025;-62
2022/05/05 04:50:51;;;;;;;20.15;11.35;;;;;;;11.17;75.52;102134.31;5046114;28;20061;-62
2022/05/05 04:53:17;;;;;;;21.75;10.40;;;;;;;11.29;75.10;102143.81;5047705;28;20017;-63
2022/05/05 04:55:42;;;;;;;17.25;10.48;;;;;;;11.36;74.41;102129.66;5047058;28;20107;-64
2022/05/05 04:58:07;;;;;;;18.60;10.35;;;;;;;11.43;73.86;102140.09;5048639;28;20053;-64
2022/05/05 05:00:33;;;;;;;16.60;9.55;;;;;;;11.57;73.49;102132.81;5029646;28;20162;-62
2022/05/05 05:02:59;;;;;;;17.40;10.82;;;;;;;11.58;73.13;102145.13;5046530;28;20044;-63
2022/05/05 05:05:24;;;;;;;12.13;8.40;;;;;;;11.69;73.15;102146.69;5044905;28;20036;-63
2022/05/05 05:07:50;;;;;;;18.80;10.60;;;;;;;11.76;72.59;102150.97;5046442;28;20505;-64
2022/05/05 05:10:15;;;;;;;14.52;9.27;;;;;;;11.85;72.04;102150.81;5046512;28;20082;-64
2022/05/05 05:12:40;;;;;;;20.48;11.27;;;;;;;11.90;71.64;102155.13;5045658;28;20561;-62
2022/05/05 05:15:06;;;;;;;19.40;11.13;;;;;;;11.92;71.36;102156.84;5047260;28;20487;-63
2022/05/05 05:17:32;;;;;;;18.98;10.20;;;;;;;11.96;71.29;102160.31;5045682;28;20484;-64
2022/05/05 05:19:57;;;;;;;16.20;10.50;;;;;;;12.01;70.58;102154.03;5046245;28;20029;-64
2022/05/05 05:22:23;;;;;;;14.40;8.45;;;;;;;12.12;70.42;102158.28;5046552;28;20028;-63
2022/05/05 05:24:48;;;;;;;17.75;10.30;;;;;;;12.16;70.13;102161.75;5047249;28;20029;-64
2022/05/05 05:27:14;;;;;;;18.15;10.05;;;;;;;12.19;69.91;102169.59;5047175;28;20467;-65
2022/05/05 05:29:39;;;;;;;22.65;9.80;;;;;;;12.25;70.01;102169.47;5046186;28;20482;-63
2022/05/05 05:32:05;;;;;;;18.67;8.93;;;;;;;12.40;69.60;102170.09;5044542;28;20485;-66
2022/05/05 05:34:30;;;;;;;20.15;11.05;;;;;;;12.34;69.69;102169.28;5043797;28;20087;-65
2022/05/05 05:36:56;;;;;;;20.38;11.70;;;;;;;12.37;69.48;102173.63;5045376;28;20108;-63
2022/05/05 05:39:22;;;;;;;19.80;11.30;;;;;;;12.35;69.68;102172.81;5046441;28;20113;-62
2022/05/05 05:41:47;;;;;;;22.40;11.50;;;;;;;12.37;69.95;102179.81;5047435;28;20021;-63
2022/05/05 05:44:12;;;;;;;27.02;11.68;;;;;;;12.35;69.91;102188.66;5045461;28;20025;-63
2022/05/05 05:46:38;;;;;;;22.58;11.10;;;;;;;12.42;70.19;102184.13;5046895;28;20491;-64
2022/05/05 05:49:05;;;;;;;23.52;11.77;;;;;;;12.47;69.92;102187.56;5045988;28;20045;-64
2022/05/05 05:51:31;;;;;;;22.00;12.15;;;;;;;12.51;70.18;102195.41;5046478;28;20021;-64
2022/05/05 05:53:56;;;;;;;26.13;12.27;;;;;;;12.55;69.99;102193.53;5046825;28;20017;-64
2022/05/05 05:56:21;;;;;;;19.45;11.43;;;;;;;12.60;70.18;102202.28;5045710;28;20471;-63
2022/05/05 05:58:47;;;;;;;25.05;11.63;;;;;;;12.66;70.03;102197.75;5046710;28;20040;-63
2022/05/05 06:01:12;;;;;;;23.00;11.68;;;;;;;12.69;69.87;102200.31;5047783;28;20033;-63
2022/05/05 06:03:56;;;;;;;22.73;11.93;;;;;;;12.78;69.28;102197.50;5050072;28;20039;-64
2022/05/05 06:06:23;;;;;;;25.45;11.82;;;;;;;12.82;69.71;102204.44;5047337;28;20040;-62
2022/05/05 06:08:49;;;;;;;22.58;11.68;;;;;;;12.89;70.00;102206.06;5049106;28;20383;-63
2022/05/05 06:11:17;;;;;;;26.70;13.07;;;;;;;12.99;69.73;102217.31;5049143;28;20029;-64
2022/05/05 06:13:42;;;;;;;21.45;12.23;;;;;;;13.02;69.27;102216.38;5048524;28;20374;-64
2022/05/05 06:16:09;;;;;;;24.88;13.00;;;;;;;13.10;68.94;102222.34;5050272;28;20047;-63
2022/05/05 06:18:39;;;;;;;20.83;12.40;;;;;;;13.09;68.37;102215.31;5049095;28;20728;-62
2022/05/05 06:21:04;;;;;;;;;;;;;;;13.09;68.68;102212.69;5044198;28;20468;-62
2022/05/05 06:23:30;;;;;;;26.77;12.05;;;;;;;13.11;69.40;102218.81;5049424;28;20019;-63
2022/05/05 06:25:55;;;;;;;22.00;11.82;;;;;;;13.22;69.78;102217.72;5048697;28;20031;-64
2022/05/05 06:28:21;;;;;;;25.77;12.98;;;;;;;13.23;68.95;102222.09;5048491;28;20032;-64
2022/05/05 06:30:46;;;;;;;32.00;12.82;;;;;;;13.27;67.92;102224.63;5049621;28;20317;-63
2022/05/05 06:33:11;;;;;;;26.05;13.18;;;;;;;13.30;68.68;102221.03;5047060;28;20553;-64
2022/05/05 06:35:37;;;;;;;32.20;13.98;;;;;;;13.39;69.31;102231.41;5048617;28;20024;-63
2022/05/05 06:38:02;;;;;;;29.80;13.82;;;;;;;13.45;68.61;102232.19;5047970;28;20031;-63
2022/05/05 06:40:28;;;;;;;21.02;12.18;;;;;;;13.51;68.22;102234.69;5049298;28;20051;-65
2022/05/05 06:42:53;;;;;;;29.35;13.45;;;;;;;13.50;69.06;102232.97;5047623;28;20033;-61
2022/05/05 06:45:18;;;;;;;23.05;13.63;;;;;;;13.48;68.23;102234.75;5045312;28;20056;-64
2022/05/05 06:47:44;;;;;;;26.45;13.48;;;;;;;13.55;68.88;102236.38;5047731;28;20036;-62
2022/05/05 06:50:09;;;;;;;24.52;13.50;;;;;;;13.59;68.84;102245.13;5047496;28;20033;-66
2022/05/05 06:52:35;;;;;;;25.35;13.60;;;;;;;13.69;69.06;102248.44;5047448;28;20480;-64
2022/05/05 06:55:00;;;;;;;27.92;14.07;;;;;;;13.78;69.35;102248.19;5048419;28;20021;-64
2022/05/05 06:57:26;;;;;;;26.73;13.77;;;;;;;13.89;68.26;102250.56;5045848;28;20025;-65
2022/05/05 06:59:52;;;;;;;30.63;14.30;;;;;;;13.98;68.76;102249.47;5046928;28;20032;-62
2022/05/05 07:02:17;;;;;;;28.02;14.35;;;;;;;14.17;67.40;102241.03;5045596;28;20013;-63
2022/05/05 07:07:27;;;;;;;35.00;15.43;;;;;;;14.20;67.32;102249.75;5037989;28;20087;-63
2022/05/05 07:12:36;;;;;;;35.22;16.45;;;;;;;14.38;67.80;102259.00;5034061;28;20037;-65
2022/05/05 07:15:02;;;;;;;26.42;15.27;;;;;;;14.44;67.58;102259.72;5031721;28;20014;-64
2022/05/05 07:17:27;;;;;;;36.70;17.65;;;;;;;14.43;66.98;102256.22;5028776;28;20044;-64
2022/05/05 07:19:53;;;;;;;33.72;17.10;;;;;;;14.62;66.24;102258.34;5037745;28;20495;-64
2022/05/05 07:22:19;;;;;;;33.80;17.13;;;;;;;14.69;66.04;102267.88;5037456;28;20033;-64
2022/05/05 07:24:46;;;;;;;38.13;17.58;;;;;;;14.76;66.41;102263.28;5037370;28;20024;-63
2022/05/05 07:27:11;;;;;;;34.85;18.23;;;;;;;14.75;66.38;102258.91;5036916;28;20035;-63
2022/05/05 07:29:41;;;;;;;37.42;18.45;;;;;;;14.83;66.15;102258.69;5038291;28;20028;-64
2022/05/05 07:32:07;;;;;;;34.05;18.35;;;;;;;14.94;66.20;102261.91;5032645;28;20407;-63
2022/05/05 07:34:34;;;;;;;33.97;19.92;;;;;;;15.01;65.60;102263.47;5031857;28;20105;-65
2022/05/05 07:37:00;;;;;;;37.53;20.33;;;;;;;15.12;65.75;102264.91;5030146;28;20028;-64
2022/05/05 07:39:25;;;;;;;39.95;20.45;;;;;;;15.23;65.66;102270.75;5033802;28;20029;-64
2022/05/05 07:41:50;;;;;;;42.28;22.35;;;;;;;15.32;65.09;102260.78;5037013;28;20025;-64
2022/05/05 07:44:16;;;;;;;38.85;21.88;;;;;;;15.27;66.03;102260.94;5029711;28;20040;-65
2022/05/05 07:46:41;;;;;;;43.92;21.25;;;;;;;15.39;65.06;102257.00;5046720;28;20376;-64
2022/05/05 07:49:07;;;;;;;37.50;20.98;;;;;;;15.41;64.50;102271.09;5031422;28;20030;-65
2022/05/05 07:51:33;;;;;;;39.45;20.75;;;;;;;15.54;64.17;102267.13;5032231;28;20494;-68
2022/05/05 07:56:43;;;;;;;40.90;22.33;;;;;;;15.55;64.79;102273.31;5031623;28;20086;-66
2022/05/05 07:59:09;;;;;;;38.97;23.20;;;;;;;15.73;63.53;102278.97;5032345;28;20026;-65
2022/05/05 08:01:34;;;;;;;42.42;22.05;;;;;;;15.85;63.53;102278.56;5030384;28;20471;-65
2022/05/05 08:03:59;;;;;;;37.55;21.63;;;;;;;15.87;63.14;102286.47;5049091;28;20124;-65
2022/05/05 08:06:25;;;;;;;42.58;20.77;;;;;;;15.90;63.16;102289.03;5036341;28;20044;-64
2022/05/05 08:08:50;;;;;;;37.85;21.90;;;;;;;15.94;63.43;102287.13;5036853;28;20024;-65
2022/05/05 08:11:17;;;;;;;38.40;21.88;;;;;;;16.20;62.83;102290.75;5033736;28;20132;-64
2022/05/05 08:13:43;;;;;;;39.47;22.95;;;;;;;16.36;62.68;102299.03;5041327;28;20113;-65
2022/05/05 08:16:08;;;;;;;41.92;23.05;;;;;;;16.49;62.04;102296.81;5042371;28;20029;-65
2022/05/05 08:18:33;;;;;;;49.60;25.25;;;;;;;16.54;62.28;102297.53;5041294;28;20024;-64
2022/05/05 08:20:59;;;;;;;40.55;23.80;;;;;;;16.37;62.49;102299.00;5042516;28;20140;-66
2022/05/05 08:23:24;;;;;;;42.33;24.30;;;;;;;16.40;62.16;102304.19;5044650;28;20412;-67
2022/05/05 08:28:36;;;;;;;40.90;24.70;;;;;;;16.79;61.57;102301.94;5045176;28;20047;-66
2022/05/05 08:31:02;;;;;;;40.88;23.33;;;;;;;16.94;60.47;102313.81;5045352;28;20029;-67
2022/05/05 08:33:28;;;;;;;47.65;25.98;;;;;;;17.11;61.20;102299.91;5045462;28;20045;-64
2022/05/05 08:35:54;;;;;;;42.00;24.23;;;;;;;17.03;60.88;102302.81;5046288;28;20025;-64
2022/05/05 08:38:19;;;;;;;41.40;23.15;;;;;;;17.05;61.38;102306.31;5047014;28;20131;-66
2022/05/05 08:40:45;;;;;;;44.00;23.27;;;;;;;16.95;62.23;102309.38;5045466;28;20017;-65
2022/05/05 08:43:12;;;;;;;38.65;23.70;;;;;;;17.15;61.44;102309.50;5046308;28;20780;-67
2022/05/05 08:45:38;;;;;;;39.83;23.85;;;;;;;17.26;61.43;102313.56;5045961;28;20032;-65
2022/05/05 08:48:06;;;;;;;41.03;23.83;;;;;;;17.37;61.43;102316.66;5045924;28;20039;-66
2022/05/05 08:50:32;;;;;;;42.42;23.27;;;;;;;17.58;60.46;102318.53;5042692;28;20071;-65
2022/05/05 08:52:58;;;;;;;41.30;24.17;;;;;;;17.73;59.73;102320.56;5045963;28;20052;-68
2022/05/05 08:55:25;;;;;;;45.60;25.83;;;;;;;18.08;58.77;102321.84;5041350;28;20371;-65
2022/05/05 08:57:50;;;;;;;42.92;26.30;;;;;;;17.76;58.64;102323.13;5046089;28;20068;-67
2022/05/05 09:00:16;;;;;;;41.67;25.95;;;;;;;17.67;59.75;102324.34;5044517;28;20154;-63
2022/05/05 09:02:43;;;;;;;41.42;24.92;;;;;;;17.32;60.37;102331.97;5042426;28;20043;-63
2022/05/05 09:05:09;;;;;;;46.17;26.98;;;;;;;17.45;60.51;102327.00;5044844;28;20052;-65
2022/05/05 09:07:48;;;;;;;43.33;26.25;;;;;;;17.49;60.71;102325.97;5044820;28;20140;-65
2022/05/05 09:10:15;;;;;;;46.15;25.63;;;;;;;17.93;58.32;102330.44;5045769;28;20083;-64
2022/05/05 09:12:40;;;;;;;45.63;25.67;;;;;;;17.82;60.01;102332.66;5042556;28;20112;-65
2022/05/05 09:15:10;;;;;;;38.88;24.23;;;;;;;18.61;56.15;102331.16;5045321;28;20084;-65
2022/05/05 09:17:35;;;;;;;44.72;25.77;;;;;;;18.65;57.14;102332.75;5045344;28;20060;-64
2022/05/05 09:20:03;;;;;;;44.17;26.98;;;;;;;18.42;57.89;102331.09;5044128;28;20094;-63
2022/05/05 09:22:29;;;;;;;46.72;25.92;;;;;;;18.57;57.21;102332.22;5045507;28;20021;-63
2022/05/05 09:24:56;;;;;;;43.10;26.13;;;;;;;18.19;58.86;102338.31;5044517;28;20062;-65
2022/05/05 09:27:33;;;;;;;44.25;26.75;;;;;;;18.50;56.96;102344.09;5043397;28;20032;-63
2022/05/05 09:30:02;;;;;;;42.40;24.20;;;;;;;18.84;56.72;102339.09;5045560;28;20092;-63
2022/05/05 09:32:41;;;;;;;43.88;26.58;;;;;;;18.62;57.62;102338.22;5044142;28;20067;-65
2022/05/05 09:35:08;;;;;;;45.28;26.27;;;;;;;18.53;58.05;102349.31;5026809;28;20033;-64
2022/05/05 09:37:33;;;;;;;42.65;26.95;;;;;;;18.71;56.84;102344.97;5028823;28;20071;-64
2022/05/05 09:40:00;;;;;;;42.58;27.17;;;;;;;19.49;54.78;102348.59;5029131;28;20061;-64
2022/05/05 09:42:45;;;;;;;46.17;26.92;;;;;;;19.45;53.81;102345.22;5029265;28;20083;-64
2022/05/05 09:45:12;;;;;;;46.50;27.38;;;;;;;19.08;55.00;102354.97;5040779;28;20037;-63
2022/05/05 09:48:03;;;;;;;46.60;28.10;;;;;;;18.96;55.41;102351.00;5049438;28;20139;-63
2022/05/05 09:50:37;;;;;;;47.17;28.52;;;;;;;18.91;55.57;102348.53;5049010;28;20029;-63
2022/05/05 09:58:40;;;;;;;42.45;25.60;;;;;;;18.96;53.48;102356.34;5036288;28;20052;-63
2022/05/05 10:01:12;;;;;;;39.28;23.77;;;;;;;19.18;52.43;102365.13;5048057;28;20011;-63
2022/05/05 10:04:03;;;;;;;40.95;24.67;;;;;;;20.07;50.50;102362.75;5048719;28;20028;-64
2022/05/05 10:06:42;;;;;;;40.88;24.70;;;;;;;19.84;50.90;102359.38;5048808;28;20025;-65
2022/05/05 10:09:10;;;;;;;40.42;24.25;;;;;;;19.93;50.60;102358.06;5047888;28;20063;-64
2022/05/05 10:11:35;;;;;;;37.90;24.88;;;;;;;20.10;49.77;102359.91;5048738;28;20040;-65
2022/05/05 10:14:02;;;;;;;38.63;24.48;;;;;;;20.01;50.81;102360.38;5047715;28;20025;-65
2022/05/05 10:16:30;;;;;;;42.15;26.45;;;;;;;20.16;49.77;102358.72;5047410;28;20055;-64
2022/05/05 10:18:56;;;;;;;37.17;24.65;;;;;;;20.39;49.48;102357.56;5047898;28;20036;-64
2022/05/05 10:21:43;;;;;;;37.00;25.00;;;;;;;20.83;47.97;102364.19;5048963;28;20471;-62
2022/05/05 10:24:17;;;;;;;46.88;25.80;;;;;;;21.07;47.52;102358.47;5047940;28;20395;-64
2022/05/05 10:26:51;;;;;;;42.88;26.45;;;;;;;20.65;48.71;102363.34;5046797;28;20025;-63
2022/05/05 10:29:31;;;;;;;40.65;27.35;;;;;;;20.57;49.05;102361.09;5049399;28;20037;-63
2022/05/05 10:32:15;;;;;;;31.25;21.63;;;;;;;20.99;46.66;102357.19;5038173;28;20026;-64
2022/05/05 10:34:45;;;;;;;36.70;23.30;;;;;;;20.54;48.63;102363.94;5028175;28;20503;-65
2022/05/05 10:37:12;;;;;;;35.25;21.98;;;;;;;20.95;47.99;102356.50;5042141;28;20030;-63
2022/05/05 10:39:47;;;;;;;38.83;25.05;;;;;;;20.64;49.31;102361.63;5027739;28;20029;-63
2022/05/05 10:42:33;;;;;;;36.05;24.08;;;;;;;21.12;47.31;102362.72;5026763;28;20025;-64
2022/05/05 10:45:05;;;;;;;37.72;24.05;;;;;;;20.90;47.11;102359.41;5026438;28;20101;-64
2022/05/05 10:47:54;;;;;;;37.08;23.23;;;;;;;21.28;46.30;102360.94;5035010;28;20426;-66
2022/05/05 10:50:56;;;;;;;40.75;23.95;;;;;;;21.28;46.75;102354.72;5049346;28;20395;-68
2022/05/05 10:53:39;;;;;;;40.63;25.50;;;;;;;21.13;48.41;102368.00;5045634;28;20032;-63
2022/05/05 10:56:25;;;;;;;44.83;27.73;;;;;;;21.03;49.87;102361.41;5047230;28;20428;-65
2022/05/05 10:59:09;;;;;;;37.50;26.00;;;;;;;20.95;50.60;102373.41;5046679;28;20025;-65
2022/05/05 11:01:46;;;;;;;39.90;23.48;;;;;;;21.80;46.81;102368.81;5043899;28;20082;-64
2022/05/05 11:04:12;;;;;;;30.63;21.75;;;;;;;21.53;46.27;102380.16;5046177;28;20094;-66
2022/05/05 11:06:38;;;;;;;33.88;22.75;;;;;;;20.93;46.45;102369.97;5046629;28;20028;-66
2022/05/05 11:09:05;;;;;;;36.75;22.67;;;;;;;20.56;48.84;102377.25;5048185;28;20456;-71
2022/05/05 11:11:42;;;;;;;37.05;23.27;;;;;;;21.31;45.67;102373.31;5047368;28;20048;-68
2022/05/05 11:22:46;;;;;;;37.78;22.58;;;;;;;22.53;42.93;102371.72;5045976;28;20087;-66
2022/05/05 11:25:11;;;;;;;32.63;21.52;;;;;;;22.70;42.58;102370.75;5046870;28;20021;-67
2022/05/05 11:27:37;;;;;;;33.40;21.80;;;;;;;22.47;43.28;102368.47;5045779;28;20498;-68
2022/05/05 11:30:03;;;;;;;35.25;23.55;;;;;;;23.13;42.47;102377.94;5047189;28;20233;-65
2022/05/05 11:32:33;;;;;;;38.47;23.88;;;;;;;22.97;42.45;102384.25;5046590;28;20090;-68
2022/05/05 11:34:59;;;;;;;33.17;24.27;;;;;;;22.86;42.89;102378.72;5045776;28;20025;-68
2022/05/05 11:37:28;;;;;;;40.80;25.63;;;;;;;22.41;43.16;102379.59;5047093;28;20032;-68
2022/05/05 11:39:54;;;;;;;36.10;24.92;;;;;;;22.56;43.16;102376.91;5044206;28;20029;-68
2022/05/05 11:42:20;;;;;;;40.42;26.00;;;;;;;22.04;44.39;102379.09;5047530;28;20494;-67
2022/05/05 11:44:46;;;;;;;37.00;25.50;;;;;;;21.08;46.31;102384.31;5045894;28;20021;-67
2022/05/05 11:47:15;;;;;;;38.05;24.75;;;;;;;20.81;48.74;102382.19;5047231;28;20207;-68
2022/05/05 11:49:43;;;;;;;42.40;25.77;;;;;;;20.98;48.51;102377.72;5045930;28;20557;-67
2022/05/05 11:52:11;;;;;;;35.58;24.00;;;;;;;21.52;46.88;102386.47;5046543;28;20075;-67